createdAt,value
2022-08-02T00:00:22.569Z,14.80
2022-08-02T00:02:51.730Z,14.80
2022-08-02T00:05:19.585Z,14.70
2022-08-02T00:07:47.451Z,14.70
2022-08-02T00:10:15.307Z,14.70
2022-08-02T00:12:43.123Z,14.80
2022-08-02T00:15:16.039Z,14.80
2022-08-02T00:17:44.426Z,14.80
2022-08-02T00:20:14.950Z,14.80
2022-08-02T00:22:42.824Z,14.90
2022-08-02T00:25:11.262Z,14.90
2022-08-02T00:27:39.094Z,14.90
2022-08-02T00:30:07.900Z,15.00
2022-08-02T00:32:35.702Z,15.00
2022-08-02T00:35:03.529Z,15.00
2022-08-02T00:37:32.758Z,15.00
2022-08-02T00:40:02.177Z,15.00
2022-08-02T00:42:30.081Z,15.00
2022-08-02T00:44:58.834Z,15.00
2022-08-02T00:47:26.656Z,15.00
2022-08-02T00:49:54.476Z,14.90
2022-08-02T00:52:23.603Z,14.80
2022-08-02T00:54:52.792Z,14.70
2022-08-02T00:57:20.729Z,14.60
2022-08-02T00:59:49.030Z,14.60
2022-08-02T01:02:17.229Z,14.50
2022-08-02T01:04:45.445Z,14.50
2022-08-02T01:07:14.411Z,14.50
2022-08-02T01:09:43.009Z,14.40
2022-08-02T01:12:13.392Z,14.40
2022-08-02T01:14:42.759Z,14.30
2022-08-02T01:17:18.559Z,14.30
2022-08-02T01:19:55.327Z,14.30
2022-08-02T01:23:03.562Z,14.20
2022-08-02T01:25:51.195Z,14.20
2022-08-02T01:28:30.904Z,14.30
2022-08-02T01:31:03.612Z,14.30
2022-08-02T01:33:39.015Z,14.30
2022-08-02T01:36:11.690Z,14.20
2022-08-02T01:38:44.429Z,14.20
2022-08-02T01:41:17.073Z,14.10
2022-08-02T01:43:47.572Z,14.10
2022-08-02T01:46:17.559Z,14.10
2022-08-02T01:48:48.322Z,14.10
2022-08-02T01:51:19.389Z,14.10
2022-08-02T01:53:50.905Z,14.00
2022-08-02T01:56:20.552Z,13.90
2022-08-02T01:58:50.828Z,13.80
2022-08-02T02:01:20.291Z,13.80
2022-08-02T02:03:50.271Z,13.80
2022-08-02T02:06:20.643Z,13.80
2022-08-02T02:08:51.026Z,13.80
2022-08-02T02:12:11.896Z,13.70
2022-08-02T02:14:10.576Z,13.80
2022-08-02T02:16:41.774Z,13.70
2022-08-02T02:19:11.526Z,13.70
2022-08-02T02:21:39.499Z,13.80
2022-08-02T02:24:11.632Z,13.80
2022-08-02T02:26:42.923Z,13.80
2022-08-02T02:29:22.970Z,13.70
2022-08-02T02:31:54.451Z,13.70
2022-08-02T02:34:28.798Z,13.60
2022-08-02T02:36:58.999Z,13.60
2022-08-02T02:39:29.789Z,13.60
2022-08-02T02:42:03.095Z,13.60
2022-08-02T02:44:32.995Z,13.50
2022-08-02T02:47:02.322Z,13.60
2022-08-02T02:49:33.107Z,13.60
2022-08-02T02:52:01.513Z,13.60
2022-08-02T02:54:34.496Z,13.50
2022-08-02T02:57:05.114Z,13.50
2022-08-02T02:59:35.038Z,13.40
2022-08-02T03:02:03.485Z,13.30
2022-08-02T03:04:55.227Z,13.20
2022-08-02T03:07:20.575Z,13.20
2022-08-02T03:09:54.339Z,13.10
2022-08-02T03:12:28.773Z,13.10
2022-08-02T03:15:00.834Z,13.10
2022-08-02T03:17:39.710Z,13.10
2022-08-02T03:20:11.056Z,13.10
2022-08-02T03:22:39.023Z,13.10
2022-08-02T03:25:08.066Z,13.20
2022-08-02T03:27:36.002Z,13.20
2022-08-02T03:30:05.922Z,13.30
2022-08-02T03:32:34.466Z,13.30
2022-08-02T03:35:02.932Z,13.30
2022-08-02T03:37:32.528Z,13.30
2022-08-02T03:40:00.789Z,13.20
2022-08-02T03:42:29.796Z,13.20
2022-08-02T03:45:00.440Z,13.10
2022-08-02T03:47:31.859Z,13.00
2022-08-02T03:50:00.871Z,12.90
2022-08-02T03:52:30.067Z,12.80
2022-08-02T03:54:59.110Z,12.70
2022-08-02T03:57:27.277Z,12.70
2022-08-02T03:59:55.108Z,12.70
2022-08-02T04:02:22.922Z,12.70
2022-08-02T04:04:52.099Z,12.80
2022-08-02T04:08:33.920Z,12.90
2022-08-02T04:10:08.285Z,13.00
2022-08-02T04:12:36.115Z,13.10
2022-08-02T04:15:05.593Z,13.20
2022-08-02T04:17:35.821Z,13.30
2022-08-02T04:20:09.641Z,13.50
2022-08-02T04:22:45.017Z,13.60
2022-08-02T04:29:01.407Z,13.80
2022-08-02T04:31:29.898Z,13.90
2022-08-02T04:33:58.309Z,14.00
2022-08-02T04:36:30.828Z,14.20
2022-08-02T04:38:59.893Z,14.70
2022-08-02T04:41:44.055Z,15.10
2022-08-02T04:44:12.458Z,15.60
2022-08-02T04:46:40.733Z,15.50
2022-08-02T04:49:09.090Z,15.40
2022-08-02T04:51:39.005Z,15.90
2022-08-02T04:54:09.083Z,16.60
2022-08-02T04:56:37.866Z,16.90
2022-08-02T04:59:05.963Z,17.20
2022-08-02T05:01:34.887Z,17.60
2022-08-02T05:04:02.757Z,17.90
2022-08-02T05:06:30.608Z,17.40
2022-08-02T05:08:59.777Z,17.30
2022-08-02T05:11:34.662Z,17.50
2022-08-02T05:14:05.449Z,17.40
2022-08-02T05:16:33.333Z,17.40
2022-08-02T05:19:02.307Z,17.10
2022-08-02T05:21:31.286Z,16.50
2022-08-02T05:24:00.485Z,16.60
2022-08-02T05:26:28.279Z,17.00
2022-08-02T05:28:56.041Z,17.30
2022-08-02T05:31:23.836Z,17.60
2022-08-02T05:33:51.685Z,17.90
2022-08-02T05:36:19.451Z,18.50
2022-08-02T05:38:50.770Z,18.60
2022-08-02T05:41:20.640Z,18.60
2022-08-02T05:43:48.838Z,18.60
2022-08-02T05:46:16.645Z,18.20
2022-08-02T05:48:44.926Z,18.30
2022-08-02T05:51:14.379Z,18.50
2022-08-02T05:53:47.679Z,18.80
2022-08-02T05:56:24.982Z,18.50
2022-08-02T05:58:58.017Z,18.30
2022-08-02T06:01:33.424Z,18.70
2022-08-02T06:04:02.958Z,19.00
2022-08-02T06:06:32.669Z,18.70
2022-08-02T06:09:03.208Z,18.40
2022-08-02T06:11:36.929Z,17.90
2022-08-02T06:14:05.876Z,17.90
2022-08-02T06:16:41.224Z,17.80
2022-08-02T06:19:12.453Z,17.90
2022-08-02T06:22:41.685Z,17.90
2022-08-02T06:24:30.954Z,18.00
2022-08-02T06:27:01.597Z,18.20
2022-08-02T06:29:35.653Z,18.20
2022-08-02T06:32:08.713Z,18.50
2022-08-02T06:34:38.047Z,18.70
2022-08-02T06:37:14.750Z,19.90
2022-08-02T06:39:46.652Z,21.10
2022-08-02T06:42:27.024Z,21.40
2022-08-02T06:44:57.653Z,21.80
2022-08-02T06:47:26.246Z,21.90
2022-08-02T06:49:54.983Z,22.10
2022-08-02T06:52:28.186Z,22.30
2022-08-02T06:54:57.610Z,22.50
2022-08-02T06:57:26.812Z,23.00
2022-08-02T06:59:54.632Z,23.40
2022-08-02T07:02:22.728Z,22.40
2022-08-02T07:04:50.608Z,21.00
2022-08-02T07:07:18.439Z,21.20
2022-08-02T07:10:00.442Z,21.50
2022-08-02T07:12:32.167Z,20.90
2022-08-02T07:15:00.427Z,20.80
2022-08-02T07:17:28.449Z,20.90
2022-08-02T07:19:56.417Z,20.90
2022-08-02T07:22:24.476Z,21.40
2022-08-02T07:24:52.796Z,22.20
2022-08-02T07:27:31.159Z,22.60
2022-08-02T07:30:00.914Z,23.30
2022-08-02T07:32:31.808Z,23.40
2022-08-02T07:35:06.495Z,23.10
2022-08-02T07:37:54.766Z,23.40
2022-08-02T07:40:25.866Z,23.30
2022-08-02T07:43:02.366Z,23.10
2022-08-02T07:45:35.711Z,23.40
2022-08-02T07:48:03.972Z,23.30
2022-08-02T07:50:31.824Z,24.40
2022-08-02T07:52:59.974Z,23.50
2022-08-02T07:55:35.276Z,22.90
2022-08-02T07:58:11.259Z,23.60
2022-08-02T08:00:43.595Z,24.00
2022-08-02T08:03:11.442Z,23.70
2022-08-02T08:05:39.226Z,23.80
2022-08-02T08:08:07.115Z,24.10
2022-08-02T08:10:34.963Z,24.60
2022-08-02T08:13:02.778Z,24.40
2022-08-02T08:15:30.576Z,24.40
2022-08-02T08:17:59.759Z,24.70
2022-08-02T08:20:27.679Z,24.90
2022-08-02T08:22:55.514Z,25.00
2022-08-02T08:25:23.423Z,24.60
2022-08-02T08:27:55.023Z,24.30
2022-08-02T08:30:23.254Z,23.80
2022-08-02T08:32:51.271Z,23.60
2022-08-02T08:35:20.582Z,23.90
2022-08-02T08:37:48.415Z,24.60
2022-08-02T08:40:19.387Z,23.90
2022-08-02T08:42:47.550Z,24.50
2022-08-02T08:45:15.384Z,24.20
2022-08-02T08:47:43.661Z,24.90
2022-08-02T08:50:18.076Z,25.00
2022-08-02T08:52:58.201Z,25.20
2022-08-02T08:55:28.628Z,25.20
2022-08-02T08:57:58.083Z,25.10
2022-08-02T09:00:26.029Z,25.10
2022-08-02T09:02:53.850Z,25.10
2022-08-02T09:05:21.628Z,25.70
2022-08-02T09:07:50.579Z,25.80
2022-08-02T09:10:41.029Z,26.70
2022-08-02T09:13:38.049Z,26.80
2022-08-02T09:16:12.397Z,26.10
2022-08-02T09:18:44.455Z,26.30
2022-08-02T09:21:12.944Z,25.60
2022-08-02T09:23:42.231Z,25.40
2022-08-02T09:26:13.499Z,26.20
2022-08-02T09:28:43.006Z,26.30
2022-08-02T09:31:12.779Z,25.60
2022-08-02T09:33:42.325Z,25.20
2022-08-02T09:36:12.259Z,25.10
2022-08-02T09:38:41.710Z,25.80
2022-08-02T09:41:22.849Z,26.10
2022-08-02T09:44:05.589Z,26.00
2022-08-02T09:46:38.312Z,25.70
2022-08-02T09:49:09.280Z,25.90
2022-08-02T09:51:41.807Z,25.60
2022-08-02T09:54:12.764Z,25.80
2022-08-02T09:56:45.271Z,26.10
2022-08-02T09:59:14.128Z,26.60
2022-08-02T10:01:44.323Z,27.30
2022-08-02T10:04:22.598Z,27.60
2022-08-02T10:06:53.822Z,27.40
2022-08-02T10:09:22.161Z,27.70
2022-08-02T10:11:53.001Z,27.90
2022-08-02T10:14:23.475Z,27.90
2022-08-02T10:16:53.188Z,27.90
2022-08-02T10:20:01.353Z,27.00
2022-08-02T10:22:12.668Z,26.00
2022-08-02T10:24:47.917Z,25.60
2022-08-02T10:27:19.759Z,26.20
2022-08-02T10:29:54.299Z,26.10
2022-08-02T10:32:30.930Z,25.60
2022-08-02T10:35:18.282Z,25.20
2022-08-02T10:37:50.890Z,25.60
2022-08-02T10:40:26.310Z,26.00
2022-08-02T10:43:00.705Z,26.30
2022-08-02T10:45:29.814Z,27.10
2022-08-02T10:48:03.455Z,27.50
2022-08-02T10:50:55.532Z,26.70
2022-08-02T10:53:25.031Z,26.10
2022-08-02T10:55:52.952Z,26.90
2022-08-02T10:58:26.230Z,27.30
2022-08-02T11:00:58.436Z,26.00
2022-08-02T11:03:41.112Z,26.10
2022-08-02T11:06:25.198Z,26.40
2022-08-02T11:09:32.002Z,26.10
2022-08-02T11:12:03.328Z,26.40
2022-08-02T11:14:35.457Z,26.90
2022-08-02T11:17:11.279Z,27.30
2022-08-02T11:20:15.472Z,27.00
2022-08-02T11:22:45.261Z,26.60
2022-08-02T11:25:54.684Z,26.10
2022-08-02T11:28:24.781Z,26.10
2022-08-02T11:30:59.608Z,26.10
2022-08-02T11:33:34.554Z,26.80
2022-08-02T11:36:04.738Z,27.40
2022-08-02T11:38:32.665Z,27.10
2022-08-02T11:41:03.774Z,27.00
2022-08-02T11:43:38.170Z,27.10
2022-08-02T11:46:14.398Z,26.90
2022-08-02T11:48:44.404Z,26.90
2022-08-02T11:51:14.383Z,26.00
2022-08-02T11:53:43.747Z,26.70
2022-08-02T11:56:12.047Z,26.80
2022-08-02T11:58:41.845Z,27.10
2022-08-02T12:01:11.178Z,26.80
2022-08-02T12:03:41.212Z,26.50
2022-08-02T12:06:16.181Z,27.00
2022-08-02T12:08:54.294Z,27.90
2022-08-02T12:11:22.942Z,28.40
2022-08-02T12:13:56.425Z,28.00
2022-08-02T12:16:51.069Z,27.50
2022-08-02T12:19:23.386Z,27.50
2022-08-02T12:22:08.397Z,27.50
2022-08-02T12:24:36.910Z,27.50
2022-08-02T12:27:04.878Z,27.70
2022-08-02T12:29:58.108Z,27.80
2022-08-02T12:32:26.360Z,28.20
2022-08-02T12:35:07.738Z,27.80
2022-08-02T12:37:36.545Z,27.90
2022-08-02T12:40:25.236Z,28.00
2022-08-02T12:42:56.448Z,28.10
2022-08-02T12:45:24.893Z,28.00
2022-08-02T12:47:55.773Z,28.10
2022-08-02T12:50:27.302Z,27.90
2022-08-02T12:53:05.625Z,27.70
2022-08-02T12:56:02.084Z,28.10
2022-08-02T12:58:23.887Z,28.00
2022-08-02T13:00:54.896Z,27.90
2022-08-02T13:04:09.898Z,27.70
2022-08-02T13:06:39.535Z,27.50
2022-08-02T13:09:00.542Z,27.90
2022-08-02T13:11:29.238Z,27.90
2022-08-02T13:13:57.133Z,27.70
2022-08-02T13:16:30.840Z,27.80
2022-08-02T13:19:01.013Z,27.90
2022-08-02T13:21:41.486Z,28.20
2022-08-02T13:24:38.028Z,28.70
2022-08-02T13:27:08.514Z,28.10
2022-08-02T13:29:36.959Z,28.40
2022-08-02T13:32:04.901Z,28.90
2022-08-02T13:34:34.112Z,28.80
2022-08-02T13:37:01.983Z,28.70
2022-08-02T13:39:29.825Z,28.30
2022-08-02T13:41:57.667Z,28.20
2022-08-02T13:44:25.486Z,28.20
2022-08-02T13:46:53.351Z,28.20
2022-08-02T13:49:50.199Z,28.40
2022-08-02T13:52:11.719Z,28.60
2022-08-02T13:54:40.027Z,28.20
2022-08-02T13:57:07.986Z,27.50
2022-08-02T13:59:57.227Z,28.00
2022-08-02T14:02:24.014Z,28.10
2022-08-02T14:04:51.864Z,27.70
2022-08-02T14:07:21.478Z,28.00
2022-08-02T14:09:49.386Z,28.40
2022-08-02T14:12:17.549Z,28.50
2022-08-02T14:14:45.522Z,28.70
2022-08-02T14:17:14.119Z,29.00
2022-08-02T14:19:42.103Z,29.30
2022-08-02T14:22:10.705Z,29.20
2022-08-02T14:24:42.200Z,28.80
2022-08-02T14:27:10.143Z,28.10
2022-08-02T14:29:38.085Z,27.80
2022-08-02T14:32:06.651Z,28.30
2022-08-02T14:34:34.586Z,28.90
2022-08-02T14:37:02.423Z,29.00
2022-08-02T14:39:43.075Z,28.90
2022-08-02T14:42:19.597Z,28.80
2022-08-02T14:44:47.497Z,28.40
2022-08-02T14:47:15.441Z,28.70
2022-08-02T14:49:47.080Z,28.70
2022-08-02T14:52:17.551Z,28.80
2022-08-02T14:54:45.440Z,28.50
2022-08-02T14:57:15.494Z,28.50
2022-08-02T14:59:44.769Z,28.50
2022-08-02T15:02:13.796Z,28.30
2022-08-02T15:04:43.657Z,28.30
2022-08-02T15:07:12.491Z,28.40
2022-08-02T15:09:40.568Z,28.60
2022-08-02T15:12:09.606Z,28.70
2022-08-02T15:14:37.976Z,28.80
2022-08-02T15:17:07.998Z,29.10
2022-08-02T15:19:56.673Z,29.30
2022-08-02T15:22:24.190Z,29.40
2022-08-02T15:24:52.161Z,29.20
2022-08-02T15:27:19.965Z,28.80
2022-08-02T15:29:49.009Z,28.90
2022-08-02T15:32:19.606Z,28.90
2022-08-02T15:34:48.069Z,29.00
2022-08-02T15:37:15.943Z,29.10
2022-08-02T15:39:43.947Z,29.20
2022-08-02T15:42:12.319Z,29.40
2022-08-02T15:44:40.586Z,29.20
2022-08-02T15:47:08.810Z,29.30
2022-08-02T15:49:41.570Z,29.20
2022-08-02T15:52:10.968Z,29.20
2022-08-02T15:54:39.160Z,28.70
2022-08-02T15:57:07.364Z,28.70
2022-08-02T15:59:35.193Z,28.70
2022-08-02T16:02:03.245Z,28.90
2022-08-02T16:04:31.257Z,29.10
2022-08-02T16:07:01.560Z,28.90
2022-08-02T16:09:29.650Z,28.30
2022-08-02T16:11:57.519Z,28.00
2022-08-02T16:14:25.582Z,27.90
2022-08-02T16:16:53.404Z,27.80
2022-08-02T16:19:46.623Z,27.80
2022-08-02T16:22:11.179Z,27.90
2022-08-02T16:24:39.500Z,28.10
2022-08-02T16:27:08.958Z,27.90
2022-08-02T16:29:37.359Z,27.80
2022-08-02T16:32:06.191Z,27.80
2022-08-02T16:34:50.839Z,27.90
2022-08-02T16:37:23.142Z,27.90
2022-08-02T16:39:50.986Z,27.90
2022-08-02T16:42:25.574Z,27.90
2022-08-02T16:44:54.716Z,27.80
2022-08-02T16:50:11.327Z,27.70
2022-08-02T16:52:40.779Z,27.70
2022-08-02T16:55:11.542Z,27.80
2022-08-02T16:57:43.219Z,27.80
2022-08-02T17:00:15.633Z,27.60
2022-08-02T17:02:44.194Z,27.60
2022-08-02T17:05:15.405Z,27.40
2022-08-02T17:10:34.562Z,27.30
2022-08-02T17:13:11.454Z,27.20
2022-08-02T17:16:00.980Z,27.10
2022-08-02T17:18:27.907Z,27.10
2022-08-02T17:20:56.174Z,27.30
2022-08-02T17:24:04.194Z,27.30
2022-08-02T17:26:13.652Z,27.20
2022-08-02T17:29:03.735Z,27.10
2022-08-02T17:31:37.118Z,26.90
2022-08-02T17:34:05.266Z,26.70
2022-08-02T17:36:33.238Z,26.70
2022-08-02T17:39:04.915Z,26.70
2022-08-02T17:41:37.685Z,26.60
2022-08-02T17:44:08.494Z,26.60
2022-08-02T17:46:37.067Z,26.70
2022-08-02T17:49:25.240Z,26.80
2022-08-02T17:52:49.098Z,26.80
2022-08-02T17:54:43.786Z,26.90
2022-08-02T17:57:11.706Z,27.00
2022-08-02T17:59:42.725Z,27.00
2022-08-02T18:02:11.369Z,27.10
2022-08-02T18:04:39.345Z,27.00
2022-08-02T18:07:09.746Z,26.90
2022-08-02T18:09:43.678Z,27.10
2022-08-02T18:12:14.387Z,26.80
2022-08-02T18:14:49.193Z,26.70
2022-08-02T18:17:18.992Z,26.40
2022-08-02T18:19:57.217Z,26.20
2022-08-02T18:22:31.301Z,26.20
2022-08-02T18:24:59.628Z,26.00
2022-08-02T18:27:29.225Z,25.80
2022-08-02T18:30:00.413Z,25.60
2022-08-02T18:33:54.998Z,25.60
2022-08-02T18:35:20.523Z,25.50
2022-08-02T18:37:56.997Z,25.30
2022-08-02T18:40:29.483Z,25.20
2022-08-02T18:42:58.757Z,25.10
2022-08-02T18:46:04.682Z,25.00
2022-08-02T18:48:17.438Z,25.00
2022-08-02T18:50:46.877Z,25.00
2022-08-02T18:53:16.778Z,24.80
2022-08-02T18:56:04.848Z,24.70
2022-08-02T18:58:34.926Z,24.60
2022-08-02T19:01:05.115Z,24.60
2022-08-02T19:03:37.153Z,24.60
2022-08-02T19:06:05.503Z,24.50
2022-08-02T19:08:34.859Z,24.50
2022-08-02T19:11:03.005Z,24.30
2022-08-02T19:13:31.091Z,24.20
2022-08-02T19:16:00.310Z,24.00
2022-08-02T19:18:30.033Z,24.00
2022-08-02T19:21:05.310Z,23.90
2022-08-02T19:23:33.941Z,23.90
2022-08-02T19:26:02.262Z,23.70
2022-08-02T19:28:31.763Z,23.60
2022-08-02T19:31:02.610Z,23.40
2022-08-02T19:34:04.330Z,23.30
2022-08-02T19:36:19.099Z,23.30
2022-08-02T19:41:43.896Z,23.00
2022-08-02T19:44:24.134Z,22.90
2022-08-02T19:46:57.951Z,22.90
2022-08-02T19:49:40.474Z,22.90
2022-08-02T19:52:21.611Z,22.90
2022-08-02T19:54:55.705Z,22.80
2022-08-02T19:57:25.547Z,22.70
2022-08-02T19:59:53.916Z,22.70
2022-08-02T20:02:23.348Z,22.60
2022-08-02T20:04:52.862Z,22.60
2022-08-02T20:07:54.615Z,22.60
2022-08-02T20:10:10.802Z,22.60
2022-08-02T20:12:39.729Z,22.60
2022-08-02T20:15:14.848Z,22.50
2022-08-02T20:17:47.553Z,22.50
2022-08-02T20:20:17.521Z,22.40
2022-08-02T20:23:32.728Z,22.40
2022-08-02T20:25:54.285Z,22.30
2022-08-02T20:28:22.853Z,22.30
2022-08-02T20:30:50.862Z,22.20
2022-08-02T20:36:08.036Z,22.10
2022-08-02T20:38:38.695Z,22.00
2022-08-02T20:41:06.817Z,21.90
2022-08-02T20:43:35.706Z,21.80
2022-08-02T20:46:03.804Z,21.70
2022-08-02T20:48:33.026Z,21.60
2022-08-02T20:51:00.862Z,21.60
2022-08-02T20:53:54.652Z,21.60
2022-08-02T20:56:23.174Z,21.60
2022-08-02T20:58:51.895Z,21.50
2022-08-02T21:01:21.151Z,21.50
2022-08-02T21:03:53.620Z,21.40
2022-08-02T21:06:28.076Z,21.40
2022-08-02T21:08:56.470Z,21.30
2022-08-02T21:11:33.531Z,21.20
2022-08-02T21:14:06.545Z,20.90
2022-08-02T21:16:37.347Z,20.70
2022-08-02T21:19:09.791Z,20.60
2022-08-02T21:21:41.572Z,20.50
2022-08-02T21:24:12.301Z,20.40
2022-08-02T21:26:40.454Z,20.40
2022-08-02T21:29:09.859Z,20.40
2022-08-02T21:31:41.414Z,20.30
2022-08-02T21:34:26.644Z,20.30
2022-08-02T21:36:55.385Z,20.20
2022-08-02T21:39:49.971Z,20.10
2022-08-02T21:42:16.336Z,20.10
2022-08-02T21:44:50.899Z,20.00
2022-08-02T21:47:25.181Z,20.00
2022-08-02T21:50:09.370Z,19.90
2022-08-02T21:52:42.269Z,19.90
2022-08-02T21:55:21.332Z,19.80
2022-08-02T21:57:52.352Z,19.70
2022-08-02T22:00:28.453Z,19.70
2022-08-02T22:02:57.079Z,19.60
2022-08-02T22:05:28.227Z,19.50
2022-08-02T22:08:05.553Z,19.50
2022-08-02T22:10:53.714Z,19.40
2022-08-02T22:13:22.498Z,19.40
2022-08-02T22:15:50.901Z,19.40
2022-08-02T22:18:29.280Z,19.40
2022-08-02T22:20:59.136Z,19.40
2022-08-02T22:26:14.897Z,19.30
2022-08-02T22:28:51.824Z,19.30
2022-08-02T22:31:41.563Z,19.30
2022-08-02T22:34:26.957Z,19.20
2022-08-02T22:36:59.007Z,19.20
2022-08-02T22:39:28.513Z,19.10
2022-08-02T22:42:05.638Z,19.10
2022-08-02T22:44:35.169Z,19.10
2022-08-02T22:49:54.417Z,19.00
2022-08-02T22:52:25.201Z,19.10
2022-08-02T22:54:53.854Z,19.10
2022-08-02T22:57:30.047Z,19.00
2022-08-02T22:58:50.792Z,27.40
2022-08-02T22:58:51.222Z,27.70
2022-08-02T22:58:52.550Z,23.10
2022-08-02T22:59:05.696Z,22.20
2022-08-02T22:59:11.854Z,19.30
2022-08-02T22:59:59.010Z,18.90
2022-08-02T23:02:26.830Z,18.90
2022-08-02T23:04:54.625Z,18.80
2022-08-02T23:07:22.503Z,18.60
2022-08-02T23:09:51.642Z,18.60
2022-08-02T23:12:20.221Z,18.50
2022-08-02T23:14:48.512Z,18.40
2022-08-02T23:17:33.294Z,18.30
2022-08-02T23:20:01.173Z,18.20
2022-08-02T23:22:32.179Z,18.10
2022-08-02T23:25:02.514Z,18.00
2022-08-02T23:27:30.885Z,18.00
2022-08-02T23:29:59.164Z,17.90
2022-08-02T23:32:27.640Z,17.80
2022-08-02T23:34:56.155Z,17.70
2022-08-02T23:37:24.531Z,17.60
2022-08-02T23:39:52.470Z,17.60
2022-08-02T23:42:23.193Z,17.60
2022-08-02T23:44:51.017Z,17.50
2022-08-02T23:47:18.888Z,17.50
2022-08-02T23:49:46.875Z,17.40
2022-08-02T23:52:14.886Z,17.50
2022-08-02T23:54:42.888Z,17.40
2022-08-02T23:57:21.074Z,17.30
2022-08-02T23:59:51.488Z,17.30
